sensor_id;sensor_type;location;lat;lon;timestamp;pressure;altitude;pressure_sealevel;temperature;humidity
70200;BME280;57587;55.688;37.600;2023-04-04T00:00:40;99373.81;;;10.98;63.36
70200;BME280;57587;55.688;37.600;2023-04-04T00:03:07;99372.16;;;10.97;63.64
70200;BME280;57587;55.688;37.600;2023-04-04T00:05:34;99374.03;;;10.96;63.21
70200;BME280;57587;55.688;37.600;2023-04-04T00:08:02;99372.72;;;10.92;62.82
70200;BME280;57587;55.688;37.600;2023-04-04T00:10:30;99371.06;;;10.91;63.12
70200;BME280;57587;55.688;37.600;2023-04-04T00:12:57;99372.09;;;10.90;62.90
70200;BME280;57587;55.688;37.600;2023-04-04T00:15:24;99357.63;;;10.84;63.27
70200;BME280;57587;55.688;37.600;2023-04-04T00:17:52;99362.78;;;10.86;63.59
70200;BME280;57587;55.688;37.600;2023-04-04T00:20:19;99367.38;;;10.92;63.52
70200;BME280;57587;55.688;37.600;2023-04-04T00:22:46;99379.09;;;10.91;63.50
70200;BME280;57587;55.688;37.600;2023-04-04T00:25:13;99371.44;;;10.88;63.70
70200;BME280;57587;55.688;37.600;2023-04-04T00:27:40;99366.88;;;10.82;63.95
70200;BME280;57587;55.688;37.600;2023-04-04T00:30:07;99366.22;;;10.80;63.72
70200;BME280;57587;55.688;37.600;2023-04-04T00:32:35;99369.53;;;10.82;64.24
70200;BME280;57587;55.688;37.600;2023-04-04T00:35:02;99364.94;;;10.76;63.98
70200;BME280;57587;55.688;37.600;2023-04-04T00:37:29;99362.06;;;10.77;64.03
70200;BME280;57587;55.688;37.600;2023-04-04T00:39:56;99364.75;;;10.77;63.87
70200;BME280;57587;55.688;37.600;2023-04-04T00:42:23;99363.28;;;10.75;63.76
70200;BME280;57587;55.688;37.600;2023-04-04T00:44:51;99365.13;;;10.74;63.70
70200;BME280;57587;55.688;37.600;2023-04-04T00:47:23;99356.84;;;10.69;63.98
70200;BME280;57587;55.688;37.600;2023-04-04T00:49:51;99361.38;;;10.69;64.21
70200;BME280;57587;55.688;37.600;2023-04-04T00:52:18;99367.13;;;10.66;63.74
70200;BME280;57587;55.688;37.600;2023-04-04T00:54:46;99362.31;;;10.61;64.20
70200;BME280;57587;55.688;37.600;2023-04-04T00:57:13;99351.81;;;10.59;63.94
70200;BME280;57587;55.688;37.600;2023-04-04T00:59:41;99362.91;;;10.56;64.28
70200;BME280;57587;55.688;37.600;2023-04-04T01:02:08;99367.38;;;10.56;64.35
70200;BME280;57587;55.688;37.600;2023-04-04T01:04:36;99364.72;;;10.56;64.07
70200;BME280;57587;55.688;37.600;2023-04-04T01:07:03;99359.56;;;10.54;64.07
70200;BME280;57587;55.688;37.600;2023-04-04T01:09:31;99366.19;;;10.58;64.15
70200;BME280;57587;55.688;37.600;2023-04-04T01:11:59;99361.03;;;10.57;64.24
70200;BME280;57587;55.688;37.600;2023-04-04T01:14:28;99358.53;;;10.55;64.24
70200;BME280;57587;55.688;37.600;2023-04-04T01:16:55;99360.59;;;10.53;64.48
70200;BME280;57587;55.688;37.600;2023-04-04T01:20:06;99361.22;;;10.55;64.34
70200;BME280;57587;55.688;37.600;2023-04-04T01:22:49;99359.56;;;10.54;64.18
70200;BME280;57587;55.688;37.600;2023-04-04T01:25:28;99358.91;;;10.52;64.40
70200;BME280;57587;55.688;37.600;2023-04-04T01:28:11;99350.72;;;10.54;64.68
70200;BME280;57587;55.688;37.600;2023-04-04T01:30:39;99356.50;;;10.57;64.39
70200;BME280;57587;55.688;37.600;2023-04-04T01:33:27;99358.16;;;10.58;64.25
70200;BME280;57587;55.688;37.600;2023-04-04T01:36:12;99348.66;;;10.56;64.45
70200;BME280;57587;55.688;37.600;2023-04-04T01:41:11;99354.38;;;10.53;64.34
70200;BME280;57587;55.688;37.600;2023-04-04T01:43:45;99352.44;;;10.61;64.24
70200;BME280;57587;55.688;37.600;2023-04-04T01:46:18;99341.50;;;10.56;63.88
70200;BME280;57587;55.688;37.600;2023-04-04T01:48:47;99353.19;;;10.55;64.46
70200;BME280;57587;55.688;37.600;2023-04-04T01:51:20;99353.56;;;10.52;64.16
70200;BME280;57587;55.688;37.600;2023-04-04T01:53:48;99351.53;;;10.54;64.56
70200;BME280;57587;55.688;37.600;2023-04-04T01:56:15;99350.91;;;10.52;64.77
70200;BME280;57587;55.688;37.600;2023-04-04T01:58:42;99348.22;;;10.52;64.36
70200;BME280;57587;55.688;37.600;2023-04-04T02:01:09;99352.28;;;10.48;64.25
70200;BME280;57587;55.688;37.600;2023-04-04T02:03:37;99349.19;;;10.45;64.78
70200;BME280;57587;55.688;37.600;2023-04-04T02:06:04;99359.59;;;10.39;64.70
70200;BME280;57587;55.688;37.600;2023-04-04T02:08:33;99357.31;;;10.36;65.24
70200;BME280;57587;55.688;37.600;2023-04-04T02:11:02;99355.19;;;10.32;64.77
70200;BME280;57587;55.688;37.600;2023-04-04T02:13:29;99354.38;;;10.31;65.33
70200;BME280;57587;55.688;37.600;2023-04-04T02:15:58;99352.53;;;10.32;65.03
70200;BME280;57587;55.688;37.600;2023-04-04T02:18:25;99356.19;;;10.31;65.00
70200;BME280;57587;55.688;37.600;2023-04-04T02:20:55;99351.88;;;10.30;65.02
70200;BME280;57587;55.688;37.600;2023-04-04T02:23:25;99352.69;;;10.30;65.69
70200;BME280;57587;55.688;37.600;2023-04-04T02:25:53;99354.75;;;10.28;65.54
70200;BME280;57587;55.688;37.600;2023-04-04T02:28:20;99352.91;;;10.29;65.20
70200;BME280;57587;55.688;37.600;2023-04-04T02:30:48;99355.81;;;10.34;65.38
70200;BME280;57587;55.688;37.600;2023-04-04T02:33:16;99363.03;;;10.33;65.47
70200;BME280;57587;55.688;37.600;2023-04-04T02:35:44;99356.47;;;10.36;65.10
70200;BME280;57587;55.688;37.600;2023-04-04T02:38:11;99350.75;;;10.39;64.87
70200;BME280;57587;55.688;37.600;2023-04-04T02:40:44;99351.19;;;10.43;64.71
70200;BME280;57587;55.688;37.600;2023-04-04T02:43:12;99348.34;;;10.44;64.72
70200;BME280;57587;55.688;37.600;2023-04-04T02:45:40;99346.66;;;10.43;64.88
70200;BME280;57587;55.688;37.600;2023-04-04T02:48:18;99352.03;;;10.43;64.43
70200;BME280;57587;55.688;37.600;2023-04-04T02:50:48;99350.38;;;10.42;64.71
70200;BME280;57587;55.688;37.600;2023-04-04T02:53:15;99344.56;;;10.38;63.76
70200;BME280;57587;55.688;37.600;2023-04-04T02:55:44;99351.94;;;10.36;63.62
70200;BME280;57587;55.688;37.600;2023-04-04T02:58:12;99351.13;;;10.36;64.17
70200;BME280;57587;55.688;37.600;2023-04-04T03:00:39;99341.63;;;10.33;64.05
70200;BME280;57587;55.688;37.600;2023-04-04T03:03:07;99355.00;;;10.33;63.95
70200;BME280;57587;55.688;37.600;2023-04-04T03:05:39;99346.59;;;10.36;64.03
70200;BME280;57587;55.688;37.600;2023-04-04T03:08:06;99347.44;;;10.37;63.56
70200;BME280;57587;55.688;37.600;2023-04-04T03:10:34;99350.09;;;10.37;63.74
70200;BME280;57587;55.688;37.600;2023-04-04T03:13:02;99351.56;;;10.39;63.76
70200;BME280;57587;55.688;37.600;2023-04-04T03:15:32;99353.63;;;10.37;64.05
70200;BME280;57587;55.688;37.600;2023-04-04T03:17:59;99351.56;;;10.39;63.65
70200;BME280;57587;55.688;37.600;2023-04-04T03:20:28;99348.06;;;10.39;63.59
70200;BME280;57587;55.688;37.600;2023-04-04T03:22:57;99359.16;;;10.36;64.05
70200;BME280;57587;55.688;37.600;2023-04-04T03:25:25;99358.59;;;10.41;64.13
70200;BME280;57587;55.688;37.600;2023-04-04T03:27:53;99358.22;;;10.44;63.13
70200;BME280;57587;55.688;37.600;2023-04-04T03:30:25;99354.31;;;10.46;63.65
70200;BME280;57587;55.688;37.600;2023-04-04T03:32:53;99352.03;;;10.43;63.63
70200;BME280;57587;55.688;37.600;2023-04-04T03:35:21;99352.66;;;10.45;63.42
70200;BME280;57587;55.688;37.600;2023-04-04T03:37:48;99353.31;;;10.47;63.39
70200;BME280;57587;55.688;37.600;2023-04-04T03:40:15;99353.78;;;10.51;63.38
70200;BME280;57587;55.688;37.600;2023-04-04T03:42:42;99352.56;;;10.53;63.10
70200;BME280;57587;55.688;37.600;2023-04-04T03:45:12;99352.38;;;10.55;63.30
70200;BME280;57587;55.688;37.600;2023-04-04T03:47:41;99358.38;;;10.57;62.93
70200;BME280;57587;55.688;37.600;2023-04-04T03:50:08;99355.25;;;10.53;63.31
70200;BME280;57587;55.688;37.600;2023-04-04T03:52:44;99361.88;;;10.57;63.11
70200;BME280;57587;55.688;37.600;2023-04-04T03:55:11;99360.84;;;10.58;63.08
70200;BME280;57587;55.688;37.600;2023-04-04T03:57:38;99365.81;;;10.61;62.68
70200;BME280;57587;55.688;37.600;2023-04-04T04:00:09;99362.13;;;10.63;62.40
70200;BME280;57587;55.688;37.600;2023-04-04T04:02:39;99368.09;;;10.65;62.42
70200;BME280;57587;55.688;37.600;2023-04-04T04:05:08;99364.69;;;10.71;62.31
70200;BME280;57587;55.688;37.600;2023-04-04T04:07:35;99363.28;;;10.75;61.73
70200;BME280;57587;55.688;37.600;2023-04-04T04:10:03;99360.69;;;10.81;62.04
70200;BME280;57587;55.688;37.600;2023-04-04T04:12:31;99372.34;;;10.95;61.77
70200;BME280;57587;55.688;37.600;2023-04-04T04:14:58;99362.66;;;11.16;61.13
70200;BME280;57587;55.688;37.600;2023-04-04T04:17:29;99365.31;;;11.37;60.39
70200;BME280;57587;55.688;37.600;2023-04-04T04:19:56;99368.34;;;11.56;59.56
70200;BME280;57587;55.688;37.600;2023-04-04T04:22:25;99362.53;;;11.80;59.20
70200;BME280;57587;55.688;37.600;2023-04-04T04:24:52;99363.03;;;12.38;57.68
70200;BME280;57587;55.688;37.600;2023-04-04T04:27:19;99357.63;;;13.00;55.47
70200;BME280;57587;55.688;37.600;2023-04-04T04:29:46;99365.91;;;13.65;53.69
70200;BME280;57587;55.688;37.600;2023-04-04T04:32:17;99364.81;;;13.99;52.42
70200;BME280;57587;55.688;37.600;2023-04-04T04:34:48;99358.56;;;14.12;52.49
70200;BME280;57587;55.688;37.600;2023-04-04T04:37:19;99359.28;;;13.94;52.31
70200;BME280;57587;55.688;37.600;2023-04-04T04:39:51;99367.75;;;13.91;51.80
70200;BME280;57587;55.688;37.600;2023-04-04T04:42:54;99366.09;;;13.83;52.55
70200;BME280;57587;55.688;37.600;2023-04-04T04:45:22;99360.75;;;13.76;52.32
70200;BME280;57587;55.688;37.600;2023-04-04T04:48:01;99367.78;;;13.71;52.17
70200;BME280;57587;55.688;37.600;2023-04-04T04:50:30;99366.31;;;13.68;52.09
70200;BME280;57587;55.688;37.600;2023-04-04T04:52:58;99371.88;;;13.87;51.84
70200;BME280;57587;55.688;37.600;2023-04-04T04:55:25;99368.28;;;14.19;51.43
70200;BME280;57587;55.688;37.600;2023-04-04T04:58:05;99372.28;;;14.62;50.56
70200;BME280;57587;55.688;37.600;2023-04-04T05:00:33;99362.47;;;14.74;49.81
70200;BME280;57587;55.688;37.600;2023-04-04T05:03:00;99366.25;;;14.66;49.79
70200;BME280;57587;55.688;37.600;2023-04-04T05:05:35;99365.53;;;14.84;49.19
70200;BME280;57587;55.688;37.600;2023-04-04T05:08:08;99362.94;;;15.03;48.80
70200;BME280;57587;55.688;37.600;2023-04-04T05:10:39;99359.19;;;15.04;48.33
70200;BME280;57587;55.688;37.600;2023-04-04T05:13:08;99357.66;;;15.14;48.09
70200;BME280;57587;55.688;37.600;2023-04-04T05:15:41;99356.13;;;15.25;48.17
70200;BME280;57587;55.688;37.600;2023-04-04T05:18:08;99354.13;;;15.39;48.24
70200;BME280;57587;55.688;37.600;2023-04-04T05:20:35;99353.28;;;15.70;47.21
70200;BME280;57587;55.688;37.600;2023-04-04T05:23:05;99352.53;;;16.36;46.01
70200;BME280;57587;55.688;37.600;2023-04-04T05:25:39;99350.75;;;17.21;43.92
70200;BME280;57587;55.688;37.600;2023-04-04T05:28:07;99349.38;;;17.54;43.01
70200;BME280;57587;55.688;37.600;2023-04-04T05:30:36;99349.97;;;18.03;42.18
70200;BME280;57587;55.688;37.600;2023-04-04T05:33:15;99353.31;;;18.33;40.44
70200;BME280;57587;55.688;37.600;2023-04-04T05:35:49;99345.38;;;18.55;40.27
70200;BME280;57587;55.688;37.600;2023-04-04T05:38:17;99351.50;;;19.25;39.08
70200;BME280;57587;55.688;37.600;2023-04-04T05:40:47;99354.03;;;20.21;37.35
70200;BME280;57587;55.688;37.600;2023-04-04T05:43:15;99346.38;;;20.40;37.13
70200;BME280;57587;55.688;37.600;2023-04-04T05:45:51;99353.31;;;19.87;36.89
70200;BME280;57587;55.688;37.600;2023-04-04T05:48:18;99351.59;;;19.13;38.48
70200;BME280;57587;55.688;37.600;2023-04-04T05:50:49;99354.78;;;18.53;39.31
70200;BME280;57587;55.688;37.600;2023-04-04T05:53:21;99353.03;;;18.06;40.17
70200;BME280;57587;55.688;37.600;2023-04-04T05:55:53;99354.59;;;17.90;40.89
70200;BME280;57587;55.688;37.600;2023-04-04T05:58:27;99346.56;;;17.72;41.26
70200;BME280;57587;55.688;37.600;2023-04-04T06:00:57;99352.69;;;17.91;40.87
70200;BME280;57587;55.688;37.600;2023-04-04T06:03:24;99352.34;;;17.87;40.67
70200;BME280;57587;55.688;37.600;2023-04-04T06:05:52;99353.75;;;17.90;40.85
70200;BME280;57587;55.688;37.600;2023-04-04T06:08:19;99350.25;;;17.78;41.04
70200;BME280;57587;55.688;37.600;2023-04-04T06:10:47;99348.31;;;18.02;41.08
70200;BME280;57587;55.688;37.600;2023-04-04T06:13:14;99345.50;;;19.06;39.11
70200;BME280;57587;55.688;37.600;2023-04-04T06:15:47;99343.38;;;19.08;38.99
70200;BME280;57587;55.688;37.600;2023-04-04T06:18:14;99346.31;;;18.89;38.81
70200;BME280;57587;55.688;37.600;2023-04-04T06:20:43;99342.03;;;18.94;38.75
70200;BME280;57587;55.688;37.600;2023-04-04T06:23:10;99354.97;;;18.75;39.29
70200;BME280;57587;55.688;37.600;2023-04-04T06:25:43;99349.09;;;19.96;37.13
70200;BME280;57587;55.688;37.600;2023-04-04T06:28:11;99353.84;;;20.06;36.96
70200;BME280;57587;55.688;37.600;2023-04-04T06:30:43;99351.31;;;20.21;36.81
70200;BME280;57587;55.688;37.600;2023-04-04T06:33:13;99353.53;;;20.95;35.29
70200;BME280;57587;55.688;37.600;2023-04-04T06:35:44;99353.06;;;21.68;34.29
70200;BME280;57587;55.688;37.600;2023-04-04T06:38:13;99350.97;;;22.95;32.37
70200;BME280;57587;55.688;37.600;2023-04-04T06:40:40;99356.28;;;22.49;32.67
70200;BME280;57587;55.688;37.600;2023-04-04T06:43:08;99360.25;;;21.79;33.21
70200;BME280;57587;55.688;37.600;2023-04-04T06:45:38;99358.00;;;21.06;34.72
70200;BME280;57587;55.688;37.600;2023-04-04T06:48:05;99348.28;;;20.39;34.80
70200;BME280;57587;55.688;37.600;2023-04-04T06:50:33;99349.16;;;19.79;36.70
70200;BME280;57587;55.688;37.600;2023-04-04T06:53:02;99346.66;;;19.44;37.08
70200;BME280;57587;55.688;37.600;2023-04-04T06:55:31;99351.75;;;19.06;37.73
70200;BME280;57587;55.688;37.600;2023-04-04T06:57:59;99351.78;;;18.66;38.54
70200;BME280;57587;55.688;37.600;2023-04-04T07:00:26;99360.78;;;18.55;38.34
70200;BME280;57587;55.688;37.600;2023-04-04T07:02:58;99355.34;;;18.26;39.29
70200;BME280;57587;55.688;37.600;2023-04-04T07:05:25;99351.38;;;18.05;39.39
70200;BME280;57587;55.688;37.600;2023-04-04T07:07:55;99358.91;;;17.68;40.74
70200;BME280;57587;55.688;37.600;2023-04-04T07:10:23;99365.97;;;17.81;40.38
70200;BME280;57587;55.688;37.600;2023-04-04T07:12:51;99364.91;;;18.05;40.40
70200;BME280;57587;55.688;37.600;2023-04-04T07:15:18;99370.06;;;18.30;40.41
70200;BME280;57587;55.688;37.600;2023-04-04T07:17:45;99357.69;;;18.63;39.88
70200;BME280;57587;55.688;37.600;2023-04-04T07:20:13;99367.28;;;18.82;39.58
70200;BME280;57587;55.688;37.600;2023-04-04T07:22:40;99360.03;;;19.00;38.84
70200;BME280;57587;55.688;37.600;2023-04-04T07:25:08;99362.31;;;18.91;38.41
70200;BME280;57587;55.688;37.600;2023-04-04T07:27:35;99362.25;;;19.03;38.36
70200;BME280;57587;55.688;37.600;2023-04-04T07:30:03;99367.38;;;19.16;38.88
70200;BME280;57587;55.688;37.600;2023-04-04T07:32:30;99360.38;;;19.54;37.78
70200;BME280;57587;55.688;37.600;2023-04-04T07:34:58;99358.47;;;20.49;36.04
70200;BME280;57587;55.688;37.600;2023-04-04T07:37:25;99363.09;;;21.99;33.12
70200;BME280;57587;55.688;37.600;2023-04-04T07:39:55;99365.06;;;22.77;31.49
70200;BME280;57587;55.688;37.600;2023-04-04T07:42:22;99363.50;;;22.96;30.37
70200;BME280;57587;55.688;37.600;2023-04-04T07:44:50;99367.34;;;23.31;30.28
70200;BME280;57587;55.688;37.600;2023-04-04T07:47:17;99365.72;;;23.91;29.53
70200;BME280;57587;55.688;37.600;2023-04-04T07:49:44;99355.25;;;25.23;28.68
70200;BME280;57587;55.688;37.600;2023-04-04T07:52:12;99368.97;;;26.59;26.51
70200;BME280;57587;55.688;37.600;2023-04-04T07:54:39;99365.59;;;27.89;24.61
70200;BME280;57587;55.688;37.600;2023-04-04T07:57:06;99360.75;;;29.05;22.28
70200;BME280;57587;55.688;37.600;2023-04-04T07:59:36;99358.00;;;30.13;21.63
70200;BME280;57587;55.688;37.600;2023-04-04T08:02:03;99358.53;;;30.81;20.60
70200;BME280;57587;55.688;37.600;2023-04-04T08:04:30;99359.84;;;30.92;20.55
70200;BME280;57587;55.688;37.600;2023-04-04T08:06:57;99369.53;;;31.67;19.43
70200;BME280;57587;55.688;37.600;2023-04-04T08:09:24;99360.25;;;32.28;18.96
70200;BME280;57587;55.688;37.600;2023-04-04T08:11:51;99361.50;;;33.11;18.04
70200;BME280;57587;55.688;37.600;2023-04-04T08:14:19;99360.84;;;33.47;17.06
70200;BME280;57587;55.688;37.600;2023-04-04T08:16:46;99364.38;;;33.56;16.73
70200;BME280;57587;55.688;37.600;2023-04-04T08:19:13;99357.88;;;33.85;16.93
70200;BME280;57587;55.688;37.600;2023-04-04T08:21:42;99354.22;;;34.55;16.21
70200;BME280;57587;55.688;37.600;2023-04-04T08:24:11;99357.84;;;34.83;15.68
70200;BME280;57587;55.688;37.600;2023-04-04T08:26:38;99349.91;;;34.70;15.83
70200;BME280;57587;55.688;37.600;2023-04-04T08:29:05;99344.47;;;34.73;16.06
70200;BME280;57587;55.688;37.600;2023-04-04T08:31:33;99356.31;;;35.39;15.12
70200;BME280;57587;55.688;37.600;2023-04-04T08:34:00;99346.78;;;33.97;15.83
70200;BME280;57587;55.688;37.600;2023-04-04T08:36:28;99359.09;;;31.82;17.53
70200;BME280;57587;55.688;37.600;2023-04-04T08:38:56;99349.19;;;30.02;19.40
70200;BME280;57587;55.688;37.600;2023-04-04T08:41:23;99347.84;;;28.78;20.72
70200;BME280;57587;55.688;37.600;2023-04-04T08:43:52;99346.88;;;27.58;21.92
70200;BME280;57587;55.688;37.600;2023-04-04T08:46:21;99352.22;;;26.60;22.72
70200;BME280;57587;55.688;37.600;2023-04-04T08:48:51;99340.75;;;25.86;23.18
70200;BME280;57587;55.688;37.600;2023-04-04T08:51:21;99348.38;;;25.26;23.64
70200;BME280;57587;55.688;37.600;2023-04-04T08:53:49;99350.63;;;24.04;24.87
70200;BME280;57587;55.688;37.600;2023-04-04T08:56:17;99346.56;;;23.66;25.70
70200;BME280;57587;55.688;37.600;2023-04-04T08:58:44;99354.16;;;22.72;25.63
70200;BME280;57587;55.688;37.600;2023-04-04T09:01:11;99362.75;;;22.38;26.78
70200;BME280;57587;55.688;37.600;2023-04-04T09:03:39;99353.66;;;22.17;26.55
70200;BME280;57587;55.688;37.600;2023-04-04T09:06:07;99360.47;;;22.15;27.41
70200;BME280;57587;55.688;37.600;2023-04-04T09:08:34;99364.59;;;22.22;27.72
70200;BME280;57587;55.688;37.600;2023-04-04T09:11:03;99364.78;;;22.05;27.51
70200;BME280;57587;55.688;37.600;2023-04-04T09:13:31;99367.16;;;22.02;28.46
70200;BME280;57587;55.688;37.600;2023-04-04T09:15:59;99368.59;;;21.67;27.62
70200;BME280;57587;55.688;37.600;2023-04-04T09:18:26;99365.88;;;21.35;28.53
70200;BME280;57587;55.688;37.600;2023-04-04T09:20:54;99370.69;;;20.95;29.34
70200;BME280;57587;55.688;37.600;2023-04-04T09:23:21;99377.69;;;20.42;29.99
70200;BME280;57587;55.688;37.600;2023-04-04T09:25:51;99372.44;;;20.14;30.59
70200;BME280;57587;55.688;37.600;2023-04-04T09:28:30;99377.66;;;19.48;31.67
70200;BME280;57587;55.688;37.600;2023-04-04T09:31:02;99374.13;;;19.30;31.60
70200;BME280;57587;55.688;37.600;2023-04-04T09:33:32;99372.22;;;19.14;32.08
70200;BME280;57587;55.688;37.600;2023-04-04T09:36:07;99377.66;;;18.85;33.16
70200;BME280;57587;55.688;37.600;2023-04-04T09:38:39;99385.94;;;18.67;33.10
70200;BME280;57587;55.688;37.600;2023-04-04T09:41:12;99383.34;;;18.32;33.98
70200;BME280;57587;55.688;37.600;2023-04-04T09:43:43;99385.59;;;18.35;34.33
70200;BME280;57587;55.688;37.600;2023-04-04T09:46:10;99388.50;;;18.33;34.51
70200;BME280;57587;55.688;37.600;2023-04-04T09:48:37;99387.94;;;18.31;34.25
70200;BME280;57587;55.688;37.600;2023-04-04T09:51:06;99379.16;;;18.12;34.34
70200;BME280;57587;55.688;37.600;2023-04-04T09:53:34;99388.34;;;18.52;34.31
70200;BME280;57587;55.688;37.600;2023-04-04T09:56:03;99382.09;;;18.63;34.26
70200;BME280;57587;55.688;37.600;2023-04-04T09:58:30;99384.31;;;19.23;33.40
70200;BME280;57587;55.688;37.600;2023-04-04T10:01:06;99385.00;;;19.64;32.42
70200;BME280;57587;55.688;37.600;2023-04-04T10:03:36;99387.59;;;19.93;32.36
70200;BME280;57587;55.688;37.600;2023-04-04T10:06:06;99386.13;;;20.46;31.84
70200;BME280;57587;55.688;37.600;2023-04-04T10:08:38;99387.41;;;21.36;30.57
70200;BME280;57587;55.688;37.600;2023-04-04T10:11:05;99380.28;;;22.05;28.98
70200;BME280;57587;55.688;37.600;2023-04-04T10:13:38;99386.03;;;22.14;28.42
70200;BME280;57587;55.688;37.600;2023-04-04T10:16:10;99390.34;;;22.04;28.96
70200;BME280;57587;55.688;37.600;2023-04-04T10:18:38;99383.13;;;21.83;28.80
70200;BME280;57587;55.688;37.600;2023-04-04T10:21:06;99388.84;;;22.19;28.65
70200;BME280;57587;55.688;37.600;2023-04-04T10:23:37;99388.16;;;22.01;28.95
70200;BME280;57587;55.688;37.600;2023-04-04T10:26:07;99388.44;;;21.62;29.22
70200;BME280;57587;55.688;37.600;2023-04-04T10:28:34;99386.13;;;21.44;29.54
70200;BME280;57587;55.688;37.600;2023-04-04T10:31:23;99388.47;;;21.08;29.97
70200;BME280;57587;55.688;37.600;2023-04-04T10:34:06;99389.00;;;20.78;30.69
70200;BME280;57587;55.688;37.600;2023-04-04T10:36:44;99386.94;;;20.63;30.75
70200;BME280;57587;55.688;37.600;2023-04-04T10:39:12;99395.09;;;20.24;30.31
70200;BME280;57587;55.688;37.600;2023-04-04T10:41:41;99393.03;;;19.93;31.41
70200;BME280;57587;55.688;37.600;2023-04-04T10:44:28;99391.72;;;19.95;31.95
70200;BME280;57587;55.688;37.600;2023-04-04T10:46:56;99396.25;;;19.90;31.44
70200;BME280;57587;55.688;37.600;2023-04-04T10:49:26;99397.47;;;19.31;32.34
70200;BME280;57587;55.688;37.600;2023-04-04T10:51:55;99399.56;;;19.12;32.22
70200;BME280;57587;55.688;37.600;2023-04-04T10:54:25;99407.38;;;19.09;32.32
70200;BME280;57587;55.688;37.600;2023-04-04T10:56:54;99397.78;;;19.18;32.16
70200;BME280;57587;55.688;37.600;2023-04-04T10:59:26;99394.91;;;19.42;31.88
70200;BME280;57587;55.688;37.600;2023-04-04T11:04:33;99391.38;;;19.41;32.60
70200;BME280;57587;55.688;37.600;2023-04-04T11:07:16;99392.03;;;19.15;32.76
70200;BME280;57587;55.688;37.600;2023-04-04T11:12:15;99395.84;;;18.73;33.68
70200;BME280;57587;55.688;37.600;2023-04-04T11:20:20;99395.28;;;18.19;34.47
70200;BME280;57587;55.688;37.600;2023-04-04T11:23:37;99400.47;;;18.09;35.07
70200;BME280;57587;55.688;37.600;2023-04-04T11:25:39;99388.34;;;18.00;34.92
70200;BME280;57587;55.688;37.600;2023-04-04T11:28:27;99386.00;;;17.80;34.62
70200;BME280;57587;55.688;37.600;2023-04-04T11:41:48;99397.56;;;17.33;34.70
70200;BME280;57587;55.688;37.600;2023-04-04T11:44:22;99390.16;;;17.28;35.11
70200;BME280;57587;55.688;37.600;2023-04-04T11:49:34;99389.72;;;17.01;35.05
70200;BME280;57587;55.688;37.600;2023-04-04T11:52:06;99399.41;;;16.91;35.28
70200;BME280;57587;55.688;37.600;2023-04-04T11:54:35;99395.91;;;16.90;35.64
70200;BME280;57587;55.688;37.600;2023-04-04T11:57:17;99398.41;;;16.73;35.68
70200;BME280;57587;55.688;37.600;2023-04-04T11:59:47;99400.53;;;16.53;36.07
70200;BME280;57587;55.688;37.600;2023-04-04T12:02:19;99390.09;;;16.56;36.57
70200;BME280;57587;55.688;37.600;2023-04-04T12:04:47;99394.91;;;16.54;36.20
70200;BME280;57587;55.688;37.600;2023-04-04T12:07:17;99399.53;;;16.47;36.38
70200;BME280;57587;55.688;37.600;2023-04-04T12:09:44;99387.63;;;16.36;36.53
70200;BME280;57587;55.688;37.600;2023-04-04T12:12:13;99391.91;;;16.44;36.49
70200;BME280;57587;55.688;37.600;2023-04-04T12:14:42;99390.53;;;16.35;36.68
70200;BME280;57587;55.688;37.600;2023-04-04T12:17:09;99395.56;;;16.31;36.56
70200;BME280;57587;55.688;37.600;2023-04-04T12:19:39;99391.59;;;16.34;36.68
70200;BME280;57587;55.688;37.600;2023-04-04T12:22:07;99397.47;;;16.31;36.92
70200;BME280;57587;55.688;37.600;2023-04-04T12:24:35;99403.84;;;16.36;36.74
70200;BME280;57587;55.688;37.600;2023-04-04T12:27:02;99396.84;;;16.47;36.82
70200;BME280;57587;55.688;37.600;2023-04-04T12:29:31;99396.53;;;16.55;36.59
70200;BME280;57587;55.688;37.600;2023-04-04T12:32:06;99402.81;;;16.68;36.89
70200;BME280;57587;55.688;37.600;2023-04-04T12:34:41;99407.97;;;16.76;36.70
70200;BME280;57587;55.688;37.600;2023-04-04T12:37:15;99400.72;;;16.88;36.69
70200;BME280;57587;55.688;37.600;2023-04-04T12:39:48;99410.69;;;16.88;35.89
70200;BME280;57587;55.688;37.600;2023-04-04T12:42:24;99413.78;;;16.91;36.19
70200;BME280;57587;55.688;37.600;2023-04-04T12:44:52;99412.63;;;16.99;36.14
70200;BME280;57587;55.688;37.600;2023-04-04T12:47:21;99417.22;;;16.98;35.84
70200;BME280;57587;55.688;37.600;2023-04-04T12:49:52;99417.88;;;16.94;35.99
70200;BME280;57587;55.688;37.600;2023-04-04T12:52:28;99418.13;;;16.92;36.02
70200;BME280;57587;55.688;37.600;2023-04-04T12:55:04;99415.00;;;16.77;35.79
70200;BME280;57587;55.688;37.600;2023-04-04T12:57:35;99414.09;;;16.83;36.05
70200;BME280;57587;55.688;37.600;2023-04-04T13:00:04;99417.63;;;16.83;35.78
70200;BME280;57587;55.688;37.600;2023-04-04T13:02:35;99413.63;;;16.86;35.94
70200;BME280;57587;55.688;37.600;2023-04-04T13:05:04;99417.97;;;16.87;35.60
70200;BME280;57587;55.688;37.600;2023-04-04T13:07:36;99417.53;;;16.90;35.94
70200;BME280;57587;55.688;37.600;2023-04-04T13:10:14;99426.09;;;16.87;36.10
70200;BME280;57587;55.688;37.600;2023-04-04T13:12:59;99425.16;;;16.75;35.61
70200;BME280;57587;55.688;37.600;2023-04-04T13:15:49;99425.72;;;16.65;35.87
70200;BME280;57587;55.688;37.600;2023-04-04T13:18:18;99427.97;;;16.68;36.00
70200;BME280;57587;55.688;37.600;2023-04-04T13:20:54;99427.88;;;16.75;36.19
70200;BME280;57587;55.688;37.600;2023-04-04T13:23:21;99429.84;;;16.86;35.29
70200;BME280;57587;55.688;37.600;2023-04-04T13:25:49;99435.41;;;16.91;35.54
70200;BME280;57587;55.688;37.600;2023-04-04T13:28:17;99440.94;;;16.96;35.29
70200;BME280;57587;55.688;37.600;2023-04-04T13:30:44;99443.50;;;16.91;35.05